createdAt,value
2022-08-22T11:20:08.184Z,4.43
2022-08-22T11:23:08.434Z,6.37
2022-08-22T11:26:07.555Z,7.35
2022-08-22T11:28:53.229Z,8.32
2022-08-22T11:31:51.913Z,7.32
2022-08-22T11:34:42.681Z,8.48
2022-08-22T11:37:43.545Z,11.25
2022-08-22T11:40:23.646Z,11.30
2022-08-22T11:43:22.619Z,11.48
2022-08-22T11:45:52.649Z,11.77
2022-08-22T11:48:23.503Z,8.38
2022-08-22T11:51:14.112Z,10.10
2022-08-22T11:53:54.868Z,8.63
2022-08-22T11:56:48.981Z,8.02
2022-08-22T11:59:54.419Z,8.82
2022-08-22T12:02:50.320Z,8.27
2022-08-22T12:05:26.476Z,9.93
2022-08-22T12:08:12.926Z,8.60
2022-08-22T12:11:08.612Z,9.68
2022-08-22T12:13:50.128Z,8.32
2022-08-22T12:16:35.372Z,9.13
2022-08-22T12:19:32.938Z,10.43
2022-08-22T12:22:31.143Z,9.48
2022-08-22T12:25:10.498Z,10.25
2022-08-22T12:27:48.191Z,9.57
2022-08-22T12:31:00.318Z,11.18
2022-08-22T12:33:38.017Z,8.77
2022-08-22T12:36:27.443Z,8.70
2022-08-22T12:39:25.182Z,9.45
2022-08-22T12:42:10.826Z,7.53
2022-08-22T12:44:44.229Z,9.82
2022-08-22T12:47:20.601Z,9.77
2022-08-22T12:50:06.519Z,10.15
2022-08-22T12:53:06.120Z,7.28
2022-08-22T12:55:56.439Z,6.72
2022-08-22T12:58:45.901Z,9.70
2022-08-22T13:01:19.364Z,8.90
2022-08-22T13:03:54.218Z,6.07
2022-08-22T13:06:48.622Z,6.10
2022-08-22T13:09:28.605Z,4.50
2022-08-22T13:12:20.524Z,4.30
2022-08-22T13:14:59.658Z,4.25
2022-08-22T13:17:28.205Z,5.03
2022-08-22T13:20:10.360Z,5.00
2022-08-22T13:22:41.175Z,6.62
2022-08-22T13:25:26.589Z,6.20
2022-08-22T13:27:59.183Z,4.28
2022-08-22T13:30:37.603Z,5.60
2022-08-22T13:33:16.373Z,4.82
2022-08-22T13:36:07.093Z,4.70
2022-08-22T13:38:46.564Z,4.57
2022-08-22T13:41:21.999Z,4.47
2022-08-22T13:44:17.527Z,5.40
2022-08-22T13:47:13.032Z,5.25
2022-08-22T13:49:46.220Z,5.18
2022-08-22T13:52:33.339Z,6.90
2022-08-22T13:55:28.852Z,5.10
2022-08-22T13:58:11.325Z,4.90
2022-08-22T14:01:17.846Z,4.15
2022-08-22T14:04:02.647Z,5.93
2022-08-22T14:09:17.494Z,4.37
2022-08-22T14:12:12.272Z,5.68
2022-08-22T14:14:46.532Z,5.93
2022-08-22T14:17:21.054Z,5.65
2022-08-22T14:19:58.792Z,4.82
2022-08-22T14:22:34.822Z,3.12
2022-08-22T14:25:18.885Z,2.50
2022-08-22T14:27:58.153Z,2.85
2022-08-22T14:30:29.918Z,2.45
2022-08-22T14:33:03.300Z,2.05
2022-08-22T14:35:37.863Z,2.10
2022-08-22T14:38:27.299Z,1.27
2022-08-22T14:41:05.994Z,1.25
2022-08-22T14:43:46.310Z,2.67
2022-08-22T14:46:20.133Z,1.58
2022-08-22T14:49:07.365Z,2.03
2022-08-22T14:51:38.516Z,1.30
2022-08-22T14:54:21.280Z,1.85
2022-08-22T14:56:52.753Z,1.27
2022-08-22T14:59:58.823Z,1.70
2022-08-22T15:02:32.312Z,1.30
2022-08-22T15:05:05.679Z,1.35
2022-08-22T15:07:35.482Z,2.00
2022-08-22T15:10:06.242Z,3.03
2022-08-22T15:12:38.440Z,2.45
2022-08-22T15:15:13.035Z,2.35
2022-08-22T15:17:50.805Z,1.98
2022-08-22T15:20:27.802Z,2.15
2022-08-22T15:23:00.771Z,1.23
2022-08-22T15:25:32.151Z,2.15
2022-08-22T15:28:14.419Z,2.05
2022-08-22T15:30:56.744Z,1.67
2022-08-22T15:33:33.638Z,1.80
2022-08-22T15:36:16.608Z,1.70
2022-08-22T15:38:51.183Z,1.65
2022-08-22T15:41:35.935Z,1.75
2022-08-22T15:44:32.273Z,2.78
2022-08-22T15:47:06.269Z,2.17
2022-08-22T15:49:51.010Z,1.00
2022-08-22T15:52:28.545Z,1.70
2022-08-22T15:54:57.005Z,1.55
2022-08-22T15:57:31.565Z,1.30
2022-08-22T16:02:42.606Z,3.80
2022-08-22T16:05:10.363Z,2.35
2022-08-22T16:07:46.344Z,1.15
2022-08-22T16:10:28.277Z,1.02
2022-08-22T16:13:15.958Z,1.27
2022-08-22T16:15:55.768Z,1.12
2022-08-22T16:18:33.229Z,0.80
2022-08-22T16:21:16.886Z,0.95
2022-08-22T16:23:50.806Z,0.80
2022-08-22T16:26:40.023Z,0.82
2022-08-22T16:29:07.280Z,0.90
2022-08-22T16:31:44.255Z,1.02
2022-08-22T16:34:18.034Z,1.08
2022-08-22T16:36:55.053Z,1.08
2022-08-22T16:39:22.394Z,1.02
2022-08-22T16:41:53.472Z,1.10
2022-08-22T16:44:29.916Z,1.08
2022-08-22T16:47:11.179Z,1.27
2022-08-22T16:49:50.646Z,0.93
2022-08-22T16:52:21.100Z,1.02
2022-08-22T16:54:49.797Z,1.20
2022-08-22T16:57:38.914Z,0.77
2022-08-22T17:00:39.457Z,0.80
2022-08-22T17:03:19.034Z,1.17
2022-08-22T17:06:20.845Z,0.75
2022-08-22T17:09:24.418Z,1.00
2022-08-22T17:12:16.801Z,0.80
2022-08-22T17:14:59.857Z,1.02
2022-08-22T17:17:51.937Z,1.05
2022-08-22T17:20:40.888Z,1.55
2022-08-22T17:23:26.231Z,0.95
2022-08-22T17:26:18.004Z,1.00
2022-08-22T17:28:46.101Z,0.98
2022-08-22T17:31:32.471Z,1.25
2022-08-22T17:34:12.149Z,1.70
2022-08-22T17:36:53.400Z,1.02
2022-08-22T17:39:43.534Z,1.00
2022-08-22T17:42:38.852Z,1.10
2022-08-22T17:45:15.411Z,1.37
2022-08-22T17:48:01.521Z,1.00
2022-08-22T17:50:48.064Z,1.37
2022-08-22T17:53:29.718Z,1.30
2022-08-22T17:56:07.418Z,1.25
2022-08-22T17:58:54.678Z,1.10
2022-08-22T18:01:39.849Z,2.25
2022-08-22T18:04:14.047Z,1.25
2022-08-22T18:06:56.220Z,1.10
2022-08-22T18:09:30.337Z,1.02
2022-08-22T18:12:17.497Z,1.00
2022-08-22T18:14:49.150Z,0.90
2022-08-22T18:17:25.635Z,0.85
2022-08-22T18:20:03.983Z,1.12
2022-08-22T18:22:46.714Z,1.05
2022-08-22T18:25:30.659Z,1.60
2022-08-22T18:27:58.278Z,1.55
2022-08-22T18:30:49.282Z,0.90
2022-08-22T18:33:43.266Z,1.30
2022-08-22T18:36:21.665Z,1.17
2022-08-22T18:38:56.095Z,1.60
2022-08-22T18:41:32.429Z,2.10
2022-08-22T18:44:01.255Z,1.10
2022-08-22T18:46:38.315Z,1.37
2022-08-22T18:49:15.592Z,1.87
2022-08-22T18:51:44.020Z,1.48
2022-08-22T18:54:11.734Z,1.35
2022-08-22T18:57:07.000Z,1.20
2022-08-22T18:59:53.853Z,1.62
2022-08-22T19:02:38.865Z,1.60
2022-08-22T19:05:28.644Z,1.20
2022-08-22T19:08:17.690Z,1.00
2022-08-22T19:10:54.764Z,2.08
2022-08-22T19:13:44.312Z,1.12
2022-08-22T19:16:53.978Z,1.40
2022-08-22T19:20:12.107Z,1.52
2022-08-22T19:22:40.626Z,1.73
2022-08-22T19:25:27.323Z,1.23
2022-08-22T19:28:01.629Z,1.52
2022-08-22T19:30:42.194Z,1.77
2022-08-22T19:33:39.679Z,2.17
2022-08-22T19:36:09.706Z,1.62
2022-08-22T19:38:57.099Z,1.60
2022-08-22T19:41:36.856Z,1.75
2022-08-22T19:44:04.785Z,1.30
2022-08-22T19:46:37.415Z,1.62
2022-08-22T19:49:07.218Z,2.00
2022-08-22T19:51:35.133Z,1.87
2022-08-22T19:54:20.878Z,1.23
2022-08-22T19:57:14.068Z,1.90
2022-08-22T20:00:00.339Z,1.85
2022-08-22T20:03:03.304Z,1.58
2022-08-22T20:06:22.009Z,2.00
2022-08-22T20:09:20.596Z,1.73
2022-08-22T20:11:51.605Z,1.70
2022-08-22T20:14:30.279Z,1.33
2022-08-22T20:17:34.246Z,2.17
2022-08-22T20:20:35.017Z,1.70
2022-08-22T20:22:57.124Z,1.45
2022-08-22T20:25:43.542Z,1.70
2022-08-22T20:28:52.380Z,1.40
2022-08-22T20:31:23.211Z,2.00
2022-08-22T20:34:12.263Z,1.77
2022-08-22T20:36:43.483Z,2.30
2022-08-22T20:39:19.228Z,1.52
2022-08-22T20:41:55.176Z,2.20
2022-08-22T20:44:31.572Z,2.45
2022-08-22T20:47:11.397Z,1.62
2022-08-22T20:49:50.601Z,2.08
2022-08-22T20:52:39.065Z,1.95
2022-08-22T20:55:13.095Z,2.55
2022-08-22T20:58:06.348Z,2.67
2022-08-22T21:00:42.826Z,2.97
2022-08-22T21:03:22.089Z,2.80
2022-08-22T21:05:50.380Z,3.12
2022-08-22T21:08:24.251Z,2.90
2022-08-22T21:11:21.660Z,3.30
2022-08-22T21:13:49.707Z,3.47
2022-08-22T21:16:22.977Z,3.03
2022-08-22T21:18:54.553Z,3.00
2022-08-22T21:21:24.685Z,3.87
2022-08-22T21:24:00.818Z,4.55
2022-08-22T21:26:36.597Z,4.62
2022-08-22T21:29:13.077Z,4.65
2022-08-22T21:31:47.964Z,4.53
2022-08-22T21:34:28.656Z,5.32
2022-08-22T21:36:59.445Z,5.32
2022-08-22T21:39:30.302Z,5.22
2022-08-22T21:42:01.000Z,5.72
2022-08-22T21:44:31.036Z,5.47
2022-08-22T21:47:35.285Z,4.68
2022-08-22T21:50:20.653Z,8.65
2022-08-22T21:52:53.899Z,8.13
2022-08-22T21:55:30.086Z,5.05
2022-08-22T21:58:34.991Z,8.95
2022-08-22T22:01:04.044Z,7.75
2022-08-22T22:03:37.067Z,7.03
2022-08-22T22:06:05.985Z,7.15
2022-08-22T22:08:33.816Z,6.57
2022-08-22T22:11:06.241Z,6.43
2022-08-22T22:13:36.417Z,7.53
2022-08-22T22:16:06.395Z,6.78
2022-08-22T22:18:34.439Z,6.80
2022-08-22T22:21:02.107Z,7.10
2022-08-22T22:23:29.580Z,7.45
2022-08-22T22:26:00.761Z,6.15
2022-08-22T22:28:34.641Z,6.65
2022-08-22T22:31:03.504Z,6.95
2022-08-22T22:33:34.137Z,6.43
2022-08-22T22:36:06.641Z,6.12
2022-08-22T22:38:34.376Z,7.68
2022-08-22T22:41:01.789Z,6.22
2022-08-22T22:43:29.387Z,6.05
2022-08-22T22:45:59.759Z,7.72
2022-08-22T22:48:27.504Z,6.47
2022-08-22T22:50:55.259Z,6.55
2022-08-22T22:53:33.779Z,6.90
2022-08-22T22:56:09.237Z,6.60
2022-08-22T22:58:38.282Z,7.22
2022-08-22T23:01:14.233Z,7.60
2022-08-22T23:03:42.430Z,5.10
2022-08-22T23:06:19.218Z,4.97
2022-08-22T23:08:47.295Z,5.18
2022-08-22T23:11:17.712Z,5.93
2022-08-22T23:13:45.494Z,4.93
2022-08-22T23:16:16.170Z,4.40
2022-08-22T23:18:44.299Z,4.90
2022-08-22T23:21:18.596Z,4.75
2022-08-22T23:26:14.564Z,5.18
2022-08-22T23:28:42.330Z,5.00
2022-08-22T23:31:26.873Z,4.18
2022-08-22T23:33:54.974Z,5.10
2022-08-22T23:36:23.675Z,4.97
2022-08-22T23:38:52.080Z,4.35
2022-08-22T23:41:21.462Z,5.05
2022-08-22T23:43:52.599Z,4.53
2022-08-22T23:46:21.572Z,4.47
2022-08-22T23:48:49.816Z,3.90
2022-08-22T23:51:22.370Z,3.60
2022-08-22T23:53:52.641Z,4.10
2022-08-22T23:56:29.716Z,3.40
2022-08-22T23:58:58.244Z,3.78
